createdAt,value
2019-02-23T00:01:22.630Z,36.73
2019-02-23T00:03:52.723Z,25.90
2019-02-23T00:06:29.806Z,26.77
2019-02-23T00:08:54.350Z,38.87
2019-02-23T00:11:27.258Z,34.07
2019-02-23T00:13:57.416Z,33.23
2019-02-23T00:16:27.506Z,47.50
2019-02-23T00:18:57.626Z,36.67
2019-02-23T00:21:27.627Z,33.83
2019-02-23T00:23:57.630Z,40.30
2019-02-23T00:26:27.961Z,29.70
2019-02-23T00:28:57.977Z,38.00
2019-02-23T00:31:28.433Z,32.20
2019-02-23T00:33:58.508Z,45.03
2019-02-23T00:36:28.514Z,30.10
2019-02-23T00:38:59.029Z,26.70
2019-02-23T00:41:29.165Z,39.70
2019-02-23T00:43:59.348Z,29.07
2019-02-23T00:46:29.371Z,24.30
2019-02-23T00:48:59.354Z,32.03
2019-02-23T00:51:29.773Z,37.83
2019-02-23T00:53:59.941Z,28.53
2019-02-23T00:56:29.898Z,39.20
2019-02-23T00:58:59.890Z,30.90
2019-02-23T01:01:29.839Z,48.17
2019-02-23T01:03:59.997Z,31.73
2019-02-23T01:06:30.083Z,28.07
2019-02-23T01:09:00.117Z,33.37
2019-02-23T01:11:30.128Z,29.60
2019-02-23T01:14:00.156Z,33.80
2019-02-23T01:16:30.101Z,50.20
2019-02-23T01:19:00.093Z,48.80
2019-02-23T01:21:30.041Z,36.53
2019-02-23T01:24:00.481Z,48.27
2019-02-23T01:26:30.527Z,41.47
2019-02-23T01:29:00.574Z,43.77
2019-02-23T01:31:30.729Z,42.93
2019-02-23T01:34:00.740Z,42.73
2019-02-23T01:36:30.768Z,55.23
2019-02-23T01:39:00.779Z,40.43
2019-02-23T01:41:30.794Z,47.00
2019-02-23T01:44:00.874Z,55.10
2019-02-23T01:46:30.950Z,55.33
2019-02-23T01:49:00.957Z,53.23
2019-02-23T01:51:30.954Z,46.87
2019-02-23T01:54:00.948Z,41.17
2019-02-23T01:56:31.361Z,60.23
2019-02-23T01:59:01.417Z,45.73
2019-02-23T02:01:31.964Z,50.93
2019-02-23T02:04:02.255Z,41.13
2019-02-23T02:06:33.659Z,50.80
2019-02-23T02:09:03.880Z,44.77
2019-02-23T02:11:34.002Z,42.33
2019-02-23T02:14:04.700Z,35.80
2019-02-23T02:16:34.850Z,37.63
2019-02-23T02:19:06.110Z,36.33
2019-02-23T02:21:36.659Z,34.73
2019-02-23T02:24:06.755Z,32.27
2019-02-23T02:26:38.239Z,43.17
2019-02-23T02:29:08.294Z,34.03
2019-02-23T02:31:38.289Z,24.53
2019-02-23T02:34:13.911Z,36.63
2019-02-23T02:36:44.119Z,30.90
2019-02-23T02:39:15.771Z,34.53
2019-02-23T02:41:45.941Z,28.20
2019-02-23T02:44:16.246Z,42.77
2019-02-23T02:46:46.293Z,33.97
2019-02-23T02:49:16.309Z,35.23
2019-02-23T02:51:46.409Z,33.33
2019-02-23T02:54:16.515Z,36.60
2019-02-23T02:56:48.448Z,31.83
2019-02-23T02:59:18.734Z,36.47
2019-02-23T03:01:48.741Z,49.93
2019-02-23T03:04:19.426Z,40.70
2019-02-23T03:06:50.105Z,50.90
2019-02-23T03:09:20.263Z,42.60
2019-02-23T03:11:51.541Z,60.77
2019-02-23T03:14:21.688Z,53.93
2019-02-23T03:16:52.168Z,49.00
2019-02-23T03:19:22.203Z,40.27
2019-02-23T03:21:52.214Z,35.60
2019-02-23T03:24:23.000Z,41.70
2019-02-23T03:26:53.063Z,46.13
2019-02-23T03:29:23.273Z,40.80
2019-02-23T03:31:53.529Z,32.37
2019-02-23T03:34:24.078Z,36.60
2019-02-23T03:36:54.198Z,45.80
2019-02-23T03:39:24.309Z,34.23
2019-02-23T03:41:54.509Z,43.93
2019-02-23T03:44:24.970Z,44.80
2019-02-23T03:46:54.918Z,42.60
2019-02-23T03:49:24.925Z,37.53
2019-02-23T03:51:54.910Z,40.40
2019-02-23T03:54:25.317Z,46.13
2019-02-23T03:56:55.466Z,37.13
2019-02-23T03:59:25.371Z,39.83
2019-02-23T04:01:55.435Z,34.87
2019-02-23T04:04:25.810Z,34.53
2019-02-23T04:06:56.390Z,48.53
2019-02-23T04:09:26.459Z,47.97
2019-02-23T04:11:57.209Z,34.07
2019-02-23T04:14:27.282Z,32.10
2019-02-23T04:16:57.532Z,28.23
2019-02-23T04:19:27.797Z,28.70
2019-02-23T04:21:57.732Z,28.50
2019-02-23T04:24:28.373Z,41.77
2019-02-23T04:26:58.872Z,33.47
2019-02-23T04:29:28.913Z,31.20
2019-02-23T04:31:58.906Z,34.40
2019-02-23T04:34:29.013Z,31.30
2019-02-23T04:37:00.026Z,33.77
2019-02-23T04:39:30.057Z,28.10
2019-02-23T04:42:00.047Z,31.73
2019-02-23T04:44:30.278Z,33.17
2019-02-23T04:47:00.490Z,28.93
2019-02-23T04:49:30.517Z,32.67
2019-02-23T04:52:00.665Z,42.70
2019-02-23T04:54:32.320Z,24.93
2019-02-23T04:57:02.419Z,28.83
2019-02-23T04:59:32.458Z,35.90
2019-02-23T05:02:02.490Z,35.97
2019-02-23T05:04:32.547Z,33.00
2019-02-23T05:07:02.591Z,36.87
2019-02-23T05:09:32.590Z,33.20
2019-02-23T05:12:02.581Z,35.17
2019-02-23T05:14:32.667Z,43.53
2019-02-23T05:17:03.073Z,35.93
2019-02-23T05:19:33.183Z,36.73
2019-02-23T05:22:03.625Z,28.63
2019-02-23T05:24:34.058Z,33.87
2019-02-23T05:27:04.023Z,29.80
2019-02-23T05:29:34.069Z,30.53
2019-02-23T05:32:04.058Z,34.10
2019-02-23T05:34:34.109Z,29.07
2019-02-23T05:37:04.657Z,31.27
2019-02-23T05:39:34.633Z,35.17
2019-02-23T05:42:04.818Z,35.50
2019-02-23T05:44:34.834Z,23.73
2019-02-23T05:47:05.078Z,22.60
2019-02-23T05:49:37.010Z,26.77
2019-02-23T05:52:06.689Z,29.10
2019-02-23T05:54:37.781Z,19.30
2019-02-23T05:57:07.779Z,24.37
2019-02-23T05:59:37.789Z,34.40
2019-02-23T06:02:07.767Z,29.83
2019-02-23T06:04:37.802Z,27.67
2019-02-23T06:07:07.794Z,26.83
2019-02-23T06:09:37.858Z,27.23
2019-02-23T06:12:08.125Z,27.23
2019-02-23T06:14:38.323Z,28.87
2019-02-23T06:17:09.107Z,22.80
2019-02-23T06:19:39.121Z,26.17
2019-02-23T06:22:09.189Z,23.77
2019-02-23T06:24:39.539Z,37.03
2019-02-23T06:27:09.507Z,24.93
2019-02-23T06:29:39.513Z,32.63
2019-02-23T06:32:09.894Z,25.63
2019-02-23T06:34:39.948Z,25.67
2019-02-23T06:37:09.965Z,24.07
2019-02-23T06:39:40.035Z,38.57
2019-02-23T06:42:10.010Z,37.10
2019-02-23T06:44:40.441Z,31.40
2019-02-23T06:47:10.438Z,46.37
2019-02-23T06:49:40.415Z,25.83
2019-02-23T06:52:10.357Z,33.77
2019-02-23T06:54:40.351Z,35.10
2019-02-23T06:57:10.346Z,67.30
2019-02-23T06:59:40.328Z,27.83
2019-02-23T07:02:10.689Z,36.87
2019-02-23T07:04:40.730Z,24.80
2019-02-23T07:07:10.780Z,42.07
2019-02-23T07:09:40.832Z,16.70
2019-02-23T07:12:11.425Z,20.70
2019-02-23T07:14:41.549Z,29.10
2019-02-23T07:17:11.478Z,27.13
2019-02-23T07:19:41.486Z,26.60
2019-02-23T07:22:15.453Z,23.07
2019-02-23T07:24:43.091Z,19.73
2019-02-23T07:27:13.061Z,22.33
2019-02-23T07:29:43.069Z,37.17
2019-02-23T07:32:13.041Z,32.40
2019-02-23T07:34:43.089Z,41.77
2019-02-23T07:37:13.058Z,62.10
2019-02-23T07:39:43.074Z,81.30
2019-02-23T07:42:13.097Z,53.90
2019-02-23T07:44:44.197Z,71.80
2019-02-23T07:47:14.373Z,57.57
2019-02-23T07:49:44.702Z,73.70
2019-02-23T07:52:14.773Z,61.37
2019-02-23T07:54:45.289Z,126.03
2019-02-23T07:57:15.650Z,52.07
2019-02-23T07:59:46.082Z,67.13
2019-02-23T08:02:17.221Z,82.30
2019-02-23T08:04:47.274Z,26.13
2019-02-23T08:07:17.278Z,40.07
2019-02-23T08:09:47.555Z,42.10
2019-02-23T08:12:17.561Z,57.40
2019-02-23T08:14:48.091Z,40.63
2019-02-23T08:17:18.503Z,29.10
2019-02-23T08:19:48.578Z,36.97
2019-02-23T08:22:18.570Z,27.90
2019-02-23T08:24:48.612Z,24.10
2019-02-23T08:27:18.606Z,34.90
2019-02-23T08:29:48.643Z,27.97
2019-02-23T08:32:18.664Z,38.97
2019-02-23T08:34:48.643Z,27.60
2019-02-23T08:37:18.893Z,21.57
2019-02-23T08:39:48.938Z,24.30
2019-02-23T08:42:18.958Z,24.10
2019-02-23T08:44:49.096Z,34.97
2019-02-23T08:47:19.253Z,17.47
2019-02-23T08:49:49.198Z,24.17
2019-02-23T08:52:20.010Z,26.30
2019-02-23T08:54:50.194Z,17.30
2019-02-23T08:57:20.381Z,24.57
2019-02-23T08:59:50.396Z,16.00
2019-02-23T09:02:21.032Z,24.37
2019-02-23T09:04:51.086Z,24.77
2019-02-23T09:07:21.062Z,26.40
2019-02-23T09:09:51.206Z,27.13
2019-02-23T09:12:21.231Z,23.60
2019-02-23T09:14:51.165Z,24.73
2019-02-23T09:17:21.194Z,26.03
2019-02-23T09:19:51.661Z,29.43
2019-02-23T09:22:23.289Z,23.97
2019-02-23T09:24:53.350Z,29.60
2019-02-23T09:27:23.590Z,33.20
2019-02-23T09:29:53.648Z,24.90
2019-02-23T09:32:23.628Z,22.97
2019-02-23T09:34:54.936Z,37.13
2019-02-23T09:37:24.908Z,19.67
2019-02-23T09:39:54.986Z,28.60
2019-02-23T09:42:25.230Z,27.33
2019-02-23T09:44:55.372Z,26.10
2019-02-23T09:47:25.854Z,31.43
2019-02-23T09:49:55.945Z,23.50
2019-02-23T09:52:25.909Z,24.13
2019-02-23T09:54:56.536Z,19.33
2019-02-23T09:57:26.614Z,19.03
2019-02-23T09:59:56.833Z,37.97
2019-02-23T10:02:26.985Z,23.00
2019-02-23T10:04:57.169Z,21.67
2019-02-23T10:07:27.269Z,17.50
2019-02-23T10:09:57.662Z,19.47
2019-02-23T10:12:27.799Z,14.63
2019-02-23T10:14:57.921Z,25.50
2019-02-23T10:17:28.374Z,42.13
2019-02-23T10:19:58.424Z,13.90
2019-02-23T10:22:34.266Z,27.17
2019-02-23T10:25:04.877Z,24.80
2019-02-23T10:27:35.774Z,25.60
2019-02-23T10:30:06.711Z,32.57
2019-02-23T10:32:37.189Z,20.30
2019-02-23T10:35:08.266Z,25.80
2019-02-23T10:37:39.366Z,31.93
2019-02-23T10:40:10.919Z,18.03
2019-02-23T10:42:40.995Z,23.53
2019-02-23T10:45:11.257Z,18.93
2019-02-23T10:47:41.452Z,24.70
2019-02-23T10:50:11.663Z,28.13
2019-02-23T10:52:41.877Z,25.70
2019-02-23T10:55:12.340Z,33.03
2019-02-23T10:57:42.441Z,20.93
2019-02-23T11:00:19.541Z,22.33
2019-02-23T11:02:49.872Z,22.53
2019-02-23T11:05:20.426Z,19.60
2019-02-23T11:07:50.441Z,23.73
2019-02-23T11:10:20.698Z,23.90
2019-02-23T11:12:51.097Z,15.13
2019-02-23T11:15:22.391Z,28.40
2019-02-23T11:17:52.737Z,28.07
2019-02-23T11:20:23.390Z,28.43
2019-02-23T11:22:53.621Z,18.63
2019-02-23T11:25:23.912Z,21.20
2019-02-23T11:27:54.255Z,24.00
2019-02-23T11:30:24.370Z,20.73
2019-02-23T11:32:54.440Z,26.60
2019-02-23T11:35:24.382Z,17.80
2019-02-23T11:37:54.461Z,25.13
2019-02-23T11:40:24.474Z,25.53
2019-02-23T11:42:54.442Z,23.93
2019-02-23T11:45:24.482Z,34.73
2019-02-23T11:47:54.525Z,36.33
2019-02-23T11:50:24.529Z,28.37
2019-02-23T11:52:54.898Z,28.00
2019-02-23T11:55:24.929Z,40.77
2019-02-23T11:57:55.029Z,26.87
2019-02-23T12:00:25.285Z,48.47
2019-02-23T12:02:55.514Z,40.70
2019-02-23T12:05:26.322Z,29.50
2019-02-23T12:07:56.415Z,24.17
2019-02-23T12:10:26.474Z,22.87
2019-02-23T12:12:56.449Z,18.83
2019-02-23T12:15:26.529Z,19.53
2019-02-23T12:17:56.589Z,24.90
2019-02-23T12:20:26.570Z,20.47
2019-02-23T12:22:56.593Z,16.43
2019-02-23T12:25:26.629Z,26.63
2019-02-23T12:27:56.689Z,19.90
2019-02-23T12:30:26.710Z,26.93
2019-02-23T12:32:56.709Z,26.70
2019-02-23T12:35:26.806Z,28.53
2019-02-23T12:37:56.901Z,23.90
2019-02-23T12:40:27.279Z,17.90
2019-02-23T12:42:57.266Z,24.63
2019-02-23T12:45:28.499Z,30.47
2019-02-23T12:47:58.681Z,24.57
2019-02-23T12:50:29.305Z,21.83
2019-02-23T12:52:59.903Z,32.03
2019-02-23T12:55:30.117Z,13.97
2019-02-23T12:58:00.594Z,22.40
2019-02-23T13:00:30.571Z,23.97
2019-02-23T13:03:00.557Z,32.87
2019-02-23T13:05:30.565Z,34.13
2019-02-23T13:08:00.837Z,26.03
2019-02-23T13:10:31.466Z,28.77
2019-02-23T13:13:38.366Z,33.47
2019-02-23T13:16:33.324Z,25.90
2019-02-23T13:19:40.337Z,30.60
2019-02-23T13:22:53.851Z,37.37
2019-02-23T13:25:45.785Z,27.30
2019-02-23T13:28:50.922Z,21.33
2019-02-23T13:32:07.919Z,29.10
2019-02-23T13:35:19.275Z,33.07
2019-02-23T13:38:33.442Z,34.83
2019-02-23T13:41:40.448Z,24.73
2019-02-23T13:44:49.690Z,19.13
2019-02-23T13:47:37.102Z,25.03
2019-02-23T13:50:36.817Z,24.60
2019-02-23T13:53:59.795Z,17.40
2019-02-23T13:56:56.281Z,22.77
2019-02-23T13:59:53.934Z,19.93
2019-02-23T14:03:13.881Z,29.23
2019-02-23T14:06:16.810Z,23.33
2019-02-23T14:09:23.694Z,18.67
2019-02-23T14:12:11.524Z,21.87
2019-02-23T14:15:00.050Z,23.37
2019-02-23T14:17:55.425Z,25.40
2019-02-23T14:20:58.451Z,31.37
2019-02-23T14:24:36.361Z,30.67
2019-02-23T14:27:42.764Z,24.67
2019-02-23T14:31:02.617Z,24.00
2019-02-23T14:34:12.156Z,22.23
2019-02-23T14:37:25.921Z,25.23
2019-02-23T14:40:32.828Z,20.10
2019-02-23T14:43:27.573Z,46.00
2019-02-23T14:46:41.673Z,22.20
2019-02-23T14:49:33.345Z,18.77
2019-02-23T14:52:33.861Z,20.23
2019-02-23T14:55:44.616Z,16.17
2019-02-23T14:59:01.867Z,23.00
2019-02-23T15:02:01.470Z,18.83
2019-02-23T15:05:14.106Z,23.00
2019-02-23T15:08:24.121Z,34.17
2019-02-23T15:11:52.949Z,29.00
2019-02-23T15:14:52.641Z,27.27
2019-02-23T15:17:57.418Z,46.17
2019-02-23T15:20:57.905Z,22.13
2019-02-23T15:24:16.656Z,28.60
2019-02-23T15:27:25.176Z,29.80
2019-02-23T15:30:29.767Z,72.07
2019-02-23T15:33:37.938Z,26.23
2019-02-23T15:36:19.509Z,22.73
2019-02-23T15:39:45.565Z,19.50
2019-02-23T15:42:51.940Z,25.83
2019-02-23T15:46:16.015Z,27.47
2019-02-23T15:49:21.319Z,30.90
2019-02-23T15:51:51.362Z,28.83
2019-02-23T15:54:21.578Z,28.00
2019-02-23T15:56:51.647Z,28.37
2019-02-23T15:59:21.787Z,34.70
2019-02-23T16:01:51.894Z,43.37
2019-02-23T16:04:21.968Z,28.20
2019-02-23T16:06:51.974Z,39.77
2019-02-23T16:09:22.579Z,38.87
2019-02-23T16:11:52.976Z,40.40
2019-02-23T16:14:23.097Z,25.23
2019-02-23T16:16:53.680Z,31.23
2019-02-23T16:19:23.803Z,37.57
2019-02-23T16:21:53.832Z,32.07
2019-02-23T16:24:24.273Z,39.33
2019-02-23T16:26:54.308Z,41.57
2019-02-23T16:29:24.325Z,34.43
2019-02-23T16:31:54.289Z,39.70
2019-02-23T16:34:24.648Z,40.73
2019-02-23T16:36:54.734Z,34.93
2019-02-23T16:39:24.780Z,40.03
2019-02-23T16:41:54.928Z,22.90
2019-02-23T16:44:24.922Z,32.87
2019-02-23T16:46:54.882Z,17.30
2019-02-23T16:49:24.938Z,26.87
2019-02-23T16:51:54.971Z,26.67
2019-02-23T16:54:25.133Z,27.30
2019-02-23T16:56:55.131Z,22.63
2019-02-23T16:59:25.478Z,19.87
2019-02-23T17:01:55.761Z,26.83
2019-02-23T17:04:26.025Z,27.33
2019-02-23T17:06:56.066Z,32.27
2019-02-23T17:09:26.602Z,24.30
2019-02-23T17:11:57.916Z,28.90
2019-02-23T17:14:28.644Z,32.80
2019-02-23T17:16:59.076Z,29.70
2019-02-23T17:19:29.255Z,25.10
2019-02-23T17:21:59.843Z,33.00
2019-02-23T17:24:30.305Z,35.00
2019-02-23T17:27:02.419Z,28.03
2019-02-23T17:29:32.511Z,28.10
2019-02-23T17:32:02.520Z,24.77
2019-02-23T17:34:32.577Z,32.07
2019-02-23T17:37:02.820Z,27.30
2019-02-23T17:39:33.137Z,41.53
2019-02-23T17:42:03.229Z,27.47
2019-02-23T17:44:33.431Z,21.73
2019-02-23T17:47:03.858Z,20.43
2019-02-23T17:49:33.971Z,30.67
2019-02-23T17:52:03.983Z,26.97
2019-02-23T17:54:35.258Z,32.77
2019-02-23T17:57:05.313Z,34.43
2019-02-23T17:59:36.423Z,18.90
2019-02-23T18:02:06.768Z,32.60
2019-02-23T18:04:36.894Z,18.80
2019-02-23T18:07:06.925Z,26.93
2019-02-23T18:09:37.080Z,25.73
2019-02-23T18:12:07.127Z,17.43
2019-02-23T18:14:38.281Z,11.10
2019-02-23T18:17:08.479Z,14.90
2019-02-23T18:19:38.669Z,19.60
2019-02-23T18:22:08.941Z,11.90
2019-02-23T18:24:38.962Z,24.27
2019-02-23T18:27:09.449Z,27.87
2019-02-23T18:29:39.521Z,13.83
2019-02-23T18:32:09.695Z,15.43
2019-02-23T18:34:39.745Z,14.53
2019-02-23T18:37:09.786Z,15.13
2019-02-23T18:39:39.877Z,27.37
2019-02-23T18:42:09.937Z,16.40
2019-02-23T18:44:39.981Z,10.90
2019-02-23T18:47:10.101Z,16.00
2019-02-23T18:49:40.093Z,11.10
2019-02-23T18:52:11.669Z,12.73
2019-02-23T18:54:41.757Z,18.50
2019-02-23T18:57:11.866Z,13.13
2019-02-23T18:59:42.176Z,12.87
2019-02-23T19:02:12.439Z,24.00
2019-02-23T19:04:42.756Z,12.80
2019-02-23T19:07:12.705Z,20.37
2019-02-23T19:09:42.761Z,23.20
2019-02-23T19:12:12.817Z,18.87
2019-02-23T19:14:42.809Z,22.93
2019-02-23T19:17:12.833Z,15.87
2019-02-23T19:19:43.286Z,19.53
2019-02-23T19:22:13.311Z,19.37
2019-02-23T19:24:43.433Z,21.60
2019-02-23T19:27:13.449Z,18.83
2019-02-23T19:29:43.570Z,30.10
2019-02-23T19:32:14.002Z,14.17
2019-02-23T19:34:43.935Z,18.77
2019-02-23T19:37:13.925Z,20.83
2019-02-23T19:39:44.184Z,14.73
2019-02-23T19:42:14.235Z,13.80
2019-02-23T19:44:44.201Z,19.77
2019-02-23T19:47:16.961Z,13.93
2019-02-23T19:49:47.158Z,16.20
2019-02-23T19:52:20.397Z,18.60
2019-02-23T19:54:50.706Z,15.73
2019-02-23T19:57:20.940Z,15.60
2019-02-23T19:59:51.250Z,18.50
2019-02-23T20:02:21.382Z,17.10
2019-02-23T20:04:51.966Z,13.87
2019-02-23T20:07:22.640Z,17.23
2019-02-23T20:09:52.649Z,30.37
2019-02-23T20:12:23.125Z,32.43
2019-02-23T20:14:53.829Z,30.40
2019-02-23T20:17:24.145Z,16.53
2019-02-23T20:19:54.422Z,14.43
2019-02-23T20:22:24.682Z,23.13
2019-02-23T20:24:54.875Z,14.73
2019-02-23T20:27:24.933Z,18.03
2019-02-23T20:29:55.216Z,20.50
2019-02-23T20:32:25.784Z,18.37
2019-02-23T20:34:56.866Z,20.23
2019-02-23T20:37:27.802Z,20.27
2019-02-23T20:39:58.093Z,18.00
2019-02-23T20:42:28.235Z,26.33
2019-02-23T20:44:58.434Z,16.97
2019-02-23T20:47:28.503Z,20.43
2019-02-23T20:49:59.025Z,21.93
2019-02-23T20:52:29.089Z,18.83
2019-02-23T20:54:59.390Z,14.57
2019-02-23T20:57:30.468Z,20.30
2019-02-23T21:00:01.536Z,22.27
2019-02-23T21:02:31.900Z,22.77
2019-02-23T21:05:02.345Z,25.50
2019-02-23T21:07:32.382Z,14.63
2019-02-23T21:10:03.406Z,24.93
2019-02-23T21:12:35.003Z,21.77
2019-02-23T21:15:08.397Z,22.70
2019-02-23T21:17:38.624Z,19.23
2019-02-23T21:20:10.319Z,19.60
2019-02-23T21:22:40.395Z,34.03
2019-02-23T21:25:13.919Z,40.80
2019-02-23T21:27:44.266Z,20.10
2019-02-23T21:30:15.244Z,25.57
2019-02-23T21:32:45.537Z,28.37
2019-02-23T21:35:15.830Z,28.50
2019-02-23T21:37:45.957Z,25.17
2019-02-23T21:40:16.021Z,20.23
2019-02-23T21:42:46.662Z,22.40
2019-02-23T21:45:20.315Z,18.87
2019-02-23T21:47:52.956Z,27.73
2019-02-23T21:50:24.865Z,21.23
2019-02-23T21:52:55.150Z,16.63
2019-02-23T21:55:25.176Z,23.50
2019-02-23T21:57:58.251Z,31.57
2019-02-23T22:00:28.450Z,25.20
2019-02-23T22:02:58.736Z,24.83
2019-02-23T22:05:29.617Z,26.97
2019-02-23T22:07:59.909Z,26.00
2019-02-23T22:10:30.002Z,21.10
2019-02-23T22:13:00.049Z,22.00
2019-02-23T22:15:30.152Z,17.00
2019-02-23T22:18:00.647Z,29.10
2019-02-23T22:20:31.722Z,22.70
2019-02-23T22:23:01.714Z,31.23
2019-02-23T22:25:31.725Z,30.80
2019-02-23T22:28:02.242Z,27.43
2019-02-23T22:30:32.378Z,24.40
2019-02-23T22:33:02.497Z,36.73
2019-02-23T22:35:32.721Z,29.27
2019-02-23T22:38:02.811Z,29.67
2019-02-23T22:40:32.962Z,37.77
2019-02-23T22:43:03.069Z,32.90
2019-02-23T22:45:34.484Z,34.63
2019-02-23T22:48:04.573Z,33.13
2019-02-23T22:50:35.824Z,30.33
2019-02-23T22:53:06.037Z,35.97
2019-02-23T22:55:36.028Z,45.20
2019-02-23T22:58:06.186Z,37.37
2019-02-23T23:00:54.114Z,40.10
2019-02-23T23:03:24.422Z,42.30
2019-02-23T23:05:54.485Z,43.63
2019-02-23T23:08:25.758Z,36.67
2019-02-23T23:10:55.908Z,40.27
2019-02-23T23:13:26.200Z,39.10
2019-02-23T23:15:56.973Z,34.70
2019-02-23T23:18:27.019Z,36.57
2019-02-23T23:20:57.121Z,35.13
2019-02-23T23:23:27.105Z,35.00
2019-02-23T23:25:57.614Z,35.33
2019-02-23T23:28:27.613Z,50.00
2019-02-23T23:30:57.613Z,49.43
2019-02-23T23:33:27.941Z,40.53
2019-02-23T23:35:58.489Z,42.63
2019-02-23T23:38:29.149Z,48.53
2019-02-23T23:40:59.222Z,42.97
2019-02-23T23:43:29.445Z,40.90
2019-02-23T23:45:59.995Z,42.30
2019-02-23T23:48:30.020Z,50.63
2019-02-23T23:51:00.175Z,36.23
2019-02-23T23:53:30.157Z,45.20
2019-02-23T23:56:00.565Z,42.53
2019-02-23T23:58:30.674Z,45.00
